Flight Track Log - Related Links

Times and Time Zones

All times are in EDT time to prevent confusion due to time zone crossing. See the SWA318 flight status page for this flight to view local times or setup timezone preferences in your user account.

Time Position Orientation Groundspeed Altitude Reporting Facility
EDT Latitude Longitude Course Direction KTS MPH feet Rate Location/Type
Fri 08:40:58 AM 42.9333 -87.9167 272° West 124 143 1,900  Level KMKE
Fri 08:42:15 AM 42.9358 -87.9989 272° West 175 201 4,600 2,374 Climbing Chicago Center
Fri 08:43:17 AM 42.9356 -88.0842 270° West 215 247 7,400 2,806 Climbing Chicago Center
Fri 08:44:19 AM 42.9367 -88.1764 271° West 238 274 10,400 2,049 Climbing Chicago Center
Fri 08:45:20 AM 42.9394 -88.2881 272° West 290 334 11,600 1,951 Climbing Chicago Center
Fri 08:46:22 AM 42.9386 -88.4158 270° West 326 375 14,400 2,565 Climbing Chicago Center
Fri 08:47:24 AM 42.9364 -88.5475 269° West 343 395 16,900 2,371 Climbing Chicago Center
Fri 08:48:26 AM 42.9361 -88.6819 270° West 351 404 19,300 2,468 Climbing Chicago Center
Fri 08:49:28 AM 42.9378 -88.8497 271° West 363 418 22,000 2,195 Climbing Chicago Center
Fri 08:50:29 AM 42.9383 -88.9903 270° West 368 423 23,800 1,659 Climbing Chicago Center
Fri 08:51:31 AM 42.9394 -89.1356 271° West 378 435 25,400 1,500 Climbing Chicago Center
Fri 08:52:33 AM 42.9383 -89.2839 269° West 387 445 26,900 1,548 Climbing Chicago Center
Fri 08:53:35 AM 42.9347 -89.4339 268° West 392 451 28,600 1,645 Climbing Chicago Center
Fri 08:54:37 AM 42.9350 -89.5781 270° West 383 441 30,300 1,548 Climbing Chicago Center
Fri 08:55:39 AM 42.9286 -89.7214 267° West 382 440 31,800 1,756 Climbing Chicago Center
Fri 08:56:40 AM 42.8989 -89.8883 256° West 380 437 33,900 1,707 Climbing Chicago Center
Fri 08:57:42 AM 42.8814 -90.0003 258° West 369 425 35,300 1,016 Climbing Chicago Center
Fri 08:58:44 AM 42.8583 -90.1536 258° West 350 403 36,000 339 Climbing Chicago Center
Fri 08:59:46 AM 42.8350 -90.2850 256° West 355 409 36,000  Level Chicago Center
Fri 09:00:48 AM 42.8114 -90.4231 257° West 370 426 36,000  Level Chicago Center
Fri 09:01:49 AM 42.7858 -90.5656 256° West 383 441 36,000  Level Chicago Center
Fri 09:02:51 AM 42.7597 -90.7089 256° West 390 449 36,000  Level Chicago Center
Fri 09:03:53 AM 42.7317 -90.8547 255° West 392 451 36,000  Level Chicago Center
Fri 09:04:55 AM 42.7019 -91.0283 257° West 399 459 36,000  Level Chicago Center
Fri 09:05:57 AM 42.6764 -91.1758 257° West 402 463 36,000  Level Chicago Center
Fri 09:06:59 AM 42.6500 -91.3206 256° West 397 457 36,000  Level Chicago Center
Fri 09:08:00 AM 42.6239 -91.4664 256° West 396 456 36,000  Level Chicago Center
Fri 09:09:02 AM 42.5983 -91.6103 256° West 385 443 36,000  Level Chicago Center
Fri 09:10:04 AM 42.5714 -91.7550 256° West 393 452 36,000  Level Chicago Center
Fri 09:11:06 AM 42.5442 -91.8961 255° West 389 448 36,000  Level Chicago Center
Fri 09:12:08 AM 42.5178 -92.0372 256° West 387 445 36,000  Level Chicago Center
Fri 09:13:10 AM 42.4858 -92.2064 256° West 387 445 36,000  Level Chicago Center
Fri 09:14:12 AM 42.4597 -92.3464 256° West 387 445 36,000  Level Chicago Center
Fri 09:15:13 AM 42.4325 -92.4858 255° West 385 443 36,000  Level Chicago Center
Fri 09:16:15 AM 42.4050 -92.6281 255° West 392 451 36,000  Level Chicago Center
Fri 09:17:17 AM 42.3778 -92.7697 255° West 392 451 36,000  Level Chicago Center
Fri 09:18:19 AM 42.3439 -92.9411 255° West 396 456 36,000  Level Chicago Center
Fri 09:19:21 AM 42.3164 -93.0850 256° West 398 458 36,000  Level Chicago Center
Fri 09:20:23 AM 42.2881 -93.2289 255° West 401 461 36,000  Level Chicago Center
Fri 09:21:25 AM 42.2586 -93.3728 255° West 401 461 36,000  Level Chicago Center
Fri 09:22:27 AM 42.2308 -93.5156 255° West 398 458 36,000  Level Chicago Center
Fri 09:23:29 AM 42.1947 -93.6850 254° West 395 455 36,000  Level Chicago Center
Fri 09:24:31 AM 42.1661 -93.8275 255° West 395 455 36,000  Level Chicago Center
Fri 09:25:33 AM 42.1375 -93.9694 255° West 397 457 36,000  Level Chicago Center
Fri 09:26:35 AM 42.1072 -94.1117 254° West 397 457 36,000  Level Chicago Center
Fri 09:27:37 AM 42.0775 -94.2547 254° West 399 459 36,000  Level Chicago Center
Fri 09:28:56 AM 42.0358 -94.4614 255° West 398 458 36,000  Level Minneapolis Center
Fri 09:29:58 AM 42.0056 -94.6031 254° West 397 457 36,000  Level Minneapolis Center
Fri 09:30:59 AM 41.9756 -94.7444 254° West 397 457 36,000  Level Minneapolis Center
Fri 09:32:00 AM 41.9456 -94.8850 254° West 397 457 36,000  Level Minneapolis Center
Fri 09:33:02 AM 41.9147 -95.0264 254° West 396 456 36,000  Level Minneapolis Center
Fri 09:34:03 AM 41.8847 -95.1644 254° West 392 451 36,000  Level Minneapolis Center
Fri 09:35:04 AM 41.8542 -95.3039 254° West 391 450 36,000  Level Minneapolis Center
Fri 09:36:05 AM 41.8242 -95.4414 254° West 389 448 36,000  Level Minneapolis Center
Fri 09:37:06 AM 41.7864 -95.6086 253° West 390 449 36,000  Level Minneapolis Center
Fri 09:38:08 AM 41.7553 -95.7483 253° West 391 450 36,000  Level Minneapolis Center
Fri 09:39:09 AM 41.7239 -95.8869 253° West 391 450 36,000  Level Minneapolis Center
Fri 09:40:10 AM 41.6961 -96.0278 255° West 393 452 36,000 295 Level Minneapolis Center
Fri 09:41:11 AM 41.6731 -96.1697 258° West 393 452 36,600 488 Climbing Minneapolis Center
Fri 09:42:13 AM 41.6494 -96.3100 257° West 393 452 37,000 195 Climbing Minneapolis Center
Fri 09:43:14 AM 41.6261 -96.4506 258° West 392 451 37,000  Level Minneapolis Center
Fri 09:44:15 AM 41.6011 -96.5933 257° West 394 453 37,000  Level Minneapolis Center
Fri 09:45:16 AM 41.5728 -96.7656 258° West 394 453 37,000  Level Minneapolis Center
Fri 09:46:18 AM 41.5475 -96.9092 257° West 397 457 37,000  Level Minneapolis Center
Fri 09:47:19 AM 41.5222 -97.0544 257° West 398 458 37,000  Level Minneapolis Center
Fri 09:48:20 AM 41.4961 -97.2003 257° West 404 465 37,000  Level Minneapolis Center
Fri 09:49:22 AM 41.4714 -97.3464 257° West 404 465 37,000  Level Minneapolis Center
Fri 09:50:23 AM 41.4453 -97.4897 256° West 404 465 37,000  Level Minneapolis Center
Fri 09:51:24 AM 41.4192 -97.6333 256° West 402 463 37,000  Level Minneapolis Center
Fri 09:52:26 AM 41.3944 -97.7758 257° West 400 460 37,000  Level Minneapolis Center
Fri 09:53:27 AM 41.3681 -97.9178 256° West 399 459 37,000  Level Minneapolis Center
Fri 09:54:28 AM 41.3378 -98.0861 257° West 396 456 37,000  Level Minneapolis Center
Fri 09:55:29 AM 41.3125 -98.2219 256° West 395 455 37,000  Level Minneapolis Center
Fri 09:56:31 AM 41.2858 -98.3644 256° West 395 455 37,000  Level Minneapolis Center
Fri 09:57:32 AM 41.2583 -98.5131 256° West 395 455 37,000  Level Minneapolis Center
Fri 09:58:33 AM 41.2311 -98.6572 256° West 398 458 37,000  Level Minneapolis Center
Fri 09:59:38 AM 41.2033 -98.8017 256° West 400 460 37,000  Level Minneapolis Center
Fri 10:00:40 AM 41.1769 -98.9431 256° West 400 460 37,000  Level Minneapolis Center
Fri 10:01:41 AM 41.1436 -99.1139 256° West 400 460 37,000  Level Minneapolis Center
Fri 10:02:14 AM 41.1303 -99.1819 255° West 400 460 37,000  Level Denver Center
Fri 10:03:17 AM 41.1025 -99.3228 255° West 400 460 37,000  Level Denver Center
Fri 10:04:18 AM 41.0742 -99.4681 256° West 398 458 37,000  Level Denver Center
Fri 10:05:18 AM 41.0475 -99.6039 255° West 397 457 37,000  Level Denver Center
Fri 10:06:22 AM 41.0189 -99.7442 255° West 396 456 37,000  Level Denver Center
Fri 10:07:22 AM 40.9894 -99.8919 255° West 395 455 37,000  Level Denver Center
Fri 10:08:22 AM 40.9581 -100.0483 255° West 395 455 37,000  Level Denver Center
Fri 10:09:26 AM 40.9308 -100.1819 255° West 394 453 37,000  Level Denver Center
Fri 10:10:26 AM 40.8983 -100.3389 255° West 395 455 37,000  Level Denver Center
Fri 10:11:27 AM 40.8711 -100.4750 255° West 397 457 37,000  Level Denver Center
Fri 10:12:29 AM 40.8428 -100.6119 255° West 401 461 37,000  Level Denver Center
Fri 10:13:30 AM 40.8100 -100.7567 253° West 401 461 37,000  Level Denver Center
Fri 10:14:33 AM 40.7772 -100.9158 255° West 403 464 37,000  Level Denver Center
Fri 10:15:34 AM 40.7483 -101.0519 254° West 403 464 37,000  Level Denver Center
Fri 10:16:35 AM 40.7144 -101.2106 254° West 403 464 37,000  Level Denver Center
Fri 10:17:38 AM 40.6856 -101.3450 254° West 402 463 37,000  Level Denver Center
Fri 10:18:40 AM 40.6558 -101.4808 254° West 402 463 37,000  Level Denver Center
Fri 10:19:40 AM 40.6208 -101.6383 254° West 402 463 37,000  Level Denver Center
Fri 10:20:43 AM 40.5911 -101.7758 254° West 407 468 37,000  Level Denver Center
Fri 10:21:45 AM 40.5556 -101.9344 254° West 407 468 37,000  Level Denver Center
Fri 10:22:45 AM 40.5253 -102.0700 254° West 406 467 37,000  Level Denver Center
Fri 10:23:47 AM 40.4897 -102.2275 254° West 405 466 37,000  Level Denver Center
Fri 10:24:50 AM 40.4592 -102.3617 253° West 405 466 37,000  Level Denver Center
Fri 10:25:51 AM 40.4289 -102.4972 254° West 404 465 37,000  Level Denver Center
Fri 10:26:55 AM 40.3919 -102.6539 253° West 404 465 37,000  Level Denver Center
Fri 10:27:56 AM 40.3644 -102.7869 255° West 404 465 37,000  Level Denver Center
Fri 10:28:57 AM 40.3239 -102.9542 252° West 404 465 37,000  Level Denver Center
Fri 10:29:58 AM 40.2897 -103.0933 252° West 404 465 37,000  Level Denver Center
Fri 10:31:01 AM 40.2581 -103.2342 254° West 404 465 37,000  Level Denver Center
Fri 10:32:03 AM 40.2256 -103.3739 253° West 404 465 37,000  Level Denver Center
Fri 10:33:16 AM 40.1922 -103.5131 253° West 404 465 37,000  Level Denver Center
Fri 10:34:20 AM 40.1528 -103.6797 253° West 404 465 37,000  Level Denver Center
Fri 10:35:21 AM 40.1128 -103.8481 253° West 404 465 37,000  Level Denver Center
Fri 10:36:22 AM 40.0794 -103.9853 252° West 402 463 37,000  Level Denver Center
Fri 10:37:25 AM 40.0453 -104.1228 252° West 401 461 37,000  Level Denver Center
Fri 10:38:26 AM 40.0108 -104.2628 252° West 405 466 37,000  Level Denver Center
Fri 10:39:31 AM 39.9769 -104.4014 252° West 405 466 37,000  Level Denver Center
Fri 10:40:31 AM 39.9367 -104.5669 252° West 405 466 37,000  Level Denver Center
Fri 10:41:34 AM 39.9011 -104.7061 252° West 406 467 37,000 48 Level Denver Center
Fri 10:42:35 AM 39.8525 -104.8369 244° Southwest 408 470 37,100 290 Climbing Denver Center
Fri 10:43:38 AM 39.7939 -104.9644 239° Southwest 413 475 37,600 435 Climbing Denver Center
Fri 10:44:39 AM 39.7369 -105.0961 241° Southwest 421 484 38,000 192 Climbing Denver Center
Fri 10:45:43 AM 39.6942 -105.2706 252° West 427 491 38,000  Level Denver Center
Fri 10:46:44 AM 39.6586 -105.4156 252° West 424 488 38,000  Level Denver Center
Fri 10:47:58 AM 39.6228 -105.5586 252° West 422 486 38,000  Level Denver Center
Fri 10:48:59 AM 39.5797 -105.7292 252° West 419 482 38,000  Level Denver Center
Fri 10:50:03 AM 39.5447 -105.8706 252° West 417 480 38,000  Level Denver Center
Fri 10:51:04 AM 39.5019 -106.0397 252° West 414 476 38,000  Level Denver Center
Fri 10:52:05 AM 39.4692 -106.1667 252° West 415 478 38,000  Level Denver Center
Fri 10:53:10 AM 39.4317 -106.3092 251° West 415 478 38,000  Level Denver Center
Fri 10:54:11 AM 39.3903 -106.4706 252° West 416 479 38,000  Level Denver Center
Fri 10:55:12 AM 39.3478 -106.6306 251° West 420 483 38,000  Level Denver Center
Fri 10:56:15 AM 39.3114 -106.7686 251° West 422 486 38,000  Level Denver Center
Fri 10:57:17 AM 39.2733 -106.9089 251° West 428 493 38,000  Level Denver Center
Fri 10:58:18 AM 39.2322 -107.0706 252° West 427 491 38,000  Level Denver Center
Fri 10:59:21 AM 39.1947 -107.2089 251° West 427 491 38,000  Level Denver Center
Fri 11:00:23 AM 39.1511 -107.3714 251° West 428 493 38,000  Level Denver Center
Fri 11:01:24 AM 39.1128 -107.5111 251° West 429 494 38,000  Level Denver Center
Fri 11:02:28 AM 39.0683 -107.6719 250° West 429 494 38,000  Level Denver Center
Fri 11:03:29 AM 39.0306 -107.8108 251° West 428 493 38,000  Level Denver Center
Fri 11:04:30 AM 38.9872 -107.9739 251° West 430 495 38,000  Level Denver Center
Fri 11:05:33 AM 38.9478 -108.1122 250° West 430 495 38,000  Level Denver Center
Fri 11:06:34 AM 38.9033 -108.2764 251° West 433 498 38,000  Level Denver Center
Fri 11:07:51 AM 38.8633 -108.4158 250° West 434 499 38,000  Level Denver Center
Fri 11:08:51 AM 38.8114 -108.6031 250° West 434 499 38,000  Level Denver Center
Fri 11:09:54 AM 38.7714 -108.7436 250° West 435 501 38,000  Level Denver Center
Fri 11:10:56 AM 38.7242 -108.9089 250° West 440 506 38,000  Level Denver Center
Fri 11:11:57 AM 38.6842 -109.0503 250° West 440 506 38,000 -336 Level Denver Center
Fri 11:13:01 AM 38.6369 -109.2156 250° West 440 506 37,300 -762 Descending Denver Center
Fri 11:14:03 AM 38.5964 -109.3544 250° West 438 504 36,400 -634 Descending Denver Center
Fri 11:15:04 AM 38.5544 -109.4936 249° West 437 503 36,000 -194 Descending Denver Center
Fri 11:16:07 AM 38.5081 -109.6594 250° West 441 507 36,000  Level Denver Center
Fri 11:17:08 AM 38.4672 -109.8003 250° West 441 507 36,000  Level Denver Center
Fri 11:18:11 AM 38.4147 -109.9606 247° West 440 506 36,000  Level Denver Center
Fri 11:19:13 AM 38.3736 -110.1014 250° West 440 506 36,000  Level Denver Center
Fri 11:20:15 AM 38.3092 -110.2589 242° Southwest 447 514 36,000 -146 Level Denver Center
Fri 11:21:16 AM 38.2508 -110.3906 241° Southwest 446 513 35,700 -677 Descending Denver Center
Fri 11:22:19 AM 38.1842 -110.5489 242° Southwest 453 521 34,600 -823 Descending Denver Center
Fri 11:23:20 AM 38.1264 -110.6800 241° Southwest 448 516 34,000 -371 Descending Denver Center
Fri 11:23:56 AM 38.0881 -110.7686 241° Southwest 449 517 34,000 -122 Level Salt Lake Center
Fri 11:24:58 AM 38.0322 -110.8981 241° Southwest 442 509 33,800 -629 Descending Salt Lake Center
Fri 11:26:00 AM 37.9658 -111.0528 241° Southwest 437 503 32,700 -871 Descending Salt Lake Center
Fri 11:27:02 AM 37.9050 -111.1897 241° Southwest 444 511 32,000 -339 Descending Salt Lake Center
Fri 11:28:04 AM 37.8442 -111.3272 241° Southwest 445 512 32,000  Level Salt Lake Center
Fri 11:29:06 AM 37.7836 -111.4650 241° Southwest 445 512 32,000  Level Salt Lake Center
Fri 11:30:08 AM 37.7242 -111.6033 242° Southwest 446 513 32,000  Level Salt Lake Center
Fri 11:31:10 AM 37.6489 -111.7667 240° Southwest 447 514 32,000  Level Salt Lake Center
Fri 11:32:12 AM 37.5881 -111.9033 241° Southwest 447 514 32,000  Level Salt Lake Center
Fri 11:33:14 AM 37.5269 -112.0397 241° Southwest 447 514 32,000  Level Salt Lake Center
Fri 11:34:16 AM 37.4653 -112.1772 241° Southwest 447 514 32,000  Level Salt Lake Center
Fri 11:35:18 AM 37.4028 -112.3136 240° Southwest 447 514 32,000  Level Salt Lake Center
Fri 11:36:24 AM 37.3275 -112.4767 240° Southwest 448 516 32,000  Level Los Angeles Center
Fri 11:37:26 AM 37.2672 -112.6081 240° Southwest 435 501 32,000  Level Los Angeles Center
Fri 11:38:28 AM 37.2064 -112.7400 240° Southwest 434 499 32,000  Level Los Angeles Center
Fri 11:39:30 AM 37.1458 -112.8714 240° Southwest 433 498 32,000  Level Los Angeles Center
Fri 11:40:32 AM 37.0853 -113.0022 240° Southwest 433 498 32,000  Level Los Angeles Center
Fri 11:41:34 AM 37.0247 -113.1317 240° Southwest 431 496 32,000  Level Los Angeles Center
Fri 11:42:36 AM 36.9639 -113.2625 240° Southwest 433 498 32,000 -1,056 Level Los Angeles Center
Fri 11:43:39 AM 36.8906 -113.4194 240° Southwest 435 501 29,800 -2,160 Descending Los Angeles Center
Fri 11:44:41 AM 36.8281 -113.5492 239° Southwest 436 502 27,500 -2,177 Descending Los Angeles Center
Fri 11:45:43 AM 36.7678 -113.6797 240° Southwest 435 501 25,300 -2,129 Descending Los Angeles Center
Fri 11:46:45 AM 36.7064 -113.8069 239° Southwest 429 494 23,100 -2,129 Descending Los Angeles Center
Fri 11:47:47 AM 36.6483 -113.9319 240° Southwest 419 482 20,900 -2,081 Descending Los Angeles Center
Fri 11:48:49 AM 36.5900 -114.0531 239° Southwest 410 472 18,800 -2,226 Descending Los Angeles Center
Fri 11:49:51 AM 36.5236 -114.1947 240° Southwest 399 459 16,300 -2,208 Descending Los Angeles Center
Fri 11:50:54 AM 36.4733 -114.3083 241° Southwest 384 442 14,200 -1,920 Descending Los Angeles Center
Fri 11:51:56 AM 36.4206 -114.4206 240° Southwest 378 435 12,300 -1,846 Descending Los Angeles Center
Fri 11:51:59 AM 36.4128 -114.4389 242° Southwest 371 427 12,200 -462 Descending Los Angeles Center
Fri 11:52:48 AM 36.3597 -114.4917 219° Southwest 342 394 11,900 -305 Descending Los Angeles Center
Fri 11:52:58 AM 36.3517 -114.4917 180° South 350 403 11,900 -1,279 Level Los Angeles Center
Fri 11:53:49 AM 36.2728 -114.5186 195° South 322 371 10,600 -1,355 Descending Los Angeles Center
Fri 11:54:00 AM 36.2658 -114.5183 178° South 321 369 10,500 -1,279 Descending Los Angeles Center
Fri 11:54:50 AM 36.1897 -114.5442 195° South 313 360 9,300 -1,258 Descending Los Angeles Center
Fri 11:55:02 AM 36.1806 -114.5444 181° South 317 365 9,200 -1,082 Descending Los Angeles Center
Fri 11:55:51 AM 36.1111 -114.5894 208° Southwest 296 341 8,200 -1,161 Descending Los Angeles Center
Fri 11:56:04 AM 36.1050 -114.6072 247° West 295 339 8,000 -200 Descending Los Angeles Center
Fri 11:56:51 AM 36.0883 -114.6822 255° West 284 327 8,000  Level Los Angeles Center
Fri 11:57:06 AM 36.0814 -114.6978 241° Southwest 287 330 8,000 -393 Level Los Angeles Center
Fri 11:57:52 AM 36.0714 -114.7625 259° West 245 282 7,600 -484 Descending Los Angeles Center
Fri 11:58:08 AM 36.0689 -114.7786 259° West 264 304 7,500 -787 Descending Los Angeles Center
Fri 11:58:53 AM 36.0739 -114.8417 276° West 227 261 6,800 -762 Descending Los Angeles Center
Fri 11:59:11 AM 36.0731 -114.8569 266° West 239 275 6,700 -1,377 Descending Los Angeles Center
Fri 11:59:54 AM 36.0725 -114.9244 269° West 251 289 5,400 -1,645 Descending Los Angeles Center
Fri 12:00:13 PM 36.0736 -114.9481 273° West 244 281 5,000 -1,377 Descending Los Angeles Center
Fri 12:00:55 PM 36.0739 -115.0092 270° West 228 262 4,000 -1,355 Descending Los Angeles Center
Fri 12:01:15 PM 36.0739 -115.0314 270° West 226 260 3,600 -984 Descending Los Angeles Center
Fri 12:01:56 PM 36.0733 -115.0761 269° West 191 220 3,000 -871 Descending Los Angeles Center
Fri 12:02:17 PM 36.0736 -115.0911 271° West 174 200 2,700 -723 Descending Los Angeles Center
Fri 12:03:19 PM 36.0731 -115.1353 269° West 153 176 2,000 -677 Descending Los Angeles Center
Fri 12:05:00 PM 36.0667 -115.1500 219° Southwest  Level FlightAware Approximate

Login

Don't have an account? Register now (free) for customized features, flight alerts, and more!